Time;durP1;ratioP1;P1;durP2;ratioP2;P2;SDS_P1;SDS_P2;PMS_P1;PMS_P2;Temp;Humidity;BMP_temperature;BMP_pressure;BME280_temperature;BME280_humidity;BME280_pressure;Samples;Min_cycle;Max_cycle;Signal;HPM_P1;HPM_P2
2022/07/30 00:04:58;;;;;;;3.97;0.98;;;28.80;47.80;;;;;;10403104;28;20095;-48
2022/07/30 00:10:00;;;;;;;2.42;1.45;;;28.80;47.80;;;;;;10401644;28;20037;-49
2022/07/30 00:15:02;;;;;;;2.70;0.60;;;28.80;47.80;;;;;;10410635;28;20041;-52
2022/07/30 00:20:06;;;;;;;1.92;0.68;;;28.70;47.80;;;;;;10407476;28;20037;-50
2022/07/30 00:25:08;;;;;;;2.70;1.10;;;28.70;47.90;;;;;;10408769;28;20120;-46
2022/07/30 00:30:11;;;;;;;2.70;0.82;;;28.60;47.90;;;;;;10393005;28;20038;-49
2022/07/30 00:35:15;;;;;;;2.47;0.70;;;28.60;48.00;;;;;;10404490;28;20069;-50
2022/07/30 00:40:17;;;;;;;2.28;0.88;;;28.60;48.00;;;;;;10412046;28;20140;-47
2022/07/30 00:45:19;;;;;;;0.77;0.75;;;28.50;47.90;;;;;;10402570;28;20049;-50
2022/07/30 00:50:22;;;;;;;1.30;0.70;;;28.50;47.90;;;;;;10398481;28;20075;-48
2022/07/30 00:55:24;;;;;;;3.97;0.95;;;28.50;48.00;;;;;;10398270;28;20099;-49
2022/07/30 01:00:26;;;;;;;2.38;0.80;;;28.40;48.00;;;;;;10403580;28;20132;-46
2022/07/30 01:05:30;;;;;;;2.05;0.90;;;28.40;48.00;;;;;;10402397;28;20131;-47
2022/07/30 01:10:31;;;;;;;1.08;0.80;;;28.40;48.10;;;;;;10401428;28;20049;-49
2022/07/30 01:15:34;;;;;;;0.50;0.50;;;28.40;48.10;;;;;;10404798;28;20717;-47
2022/07/30 01:20:45;;;;;;;0.80;0.57;;;28.30;48.10;;;;;;10391854;28;20099;-54
2022/07/30 01:25:55;;;;;;;1.07;0.40;;;28.30;48.10;;;;;;10393081;28;20121;-50
2022/07/30 01:30:58;;;;;;;0.80;0.70;;;28.20;48.10;;;;;;10397727;28;20041;-47
2022/07/30 01:36:01;;;;;;;0.70;0.50;;;28.20;48.10;;;;;;10395852;28;20077;-53
2022/07/30 01:41:07;;;;;;;0.68;0.60;;;28.20;48.10;;;;;;10355367;28;1151786;-52
2022/07/30 01:46:10;;;;;;;1.45;0.77;;;28.10;48.10;;;;;;10395960;28;20037;-51
2022/07/30 01:51:13;;;;;;;0.68;0.60;;;28.10;48.20;;;;;;10397365;28;20065;-51
2022/07/30 01:56:19;;;;;;;1.10;0.80;;;28.10;48.20;;;;;;10391247;28;20100;-52
2022/07/30 02:01:21;;;;;;;1.80;0.80;;;28.10;48.20;;;;;;10378479;28;20042;-51
2022/07/30 02:06:29;;;;;;;1.13;0.73;;;28.00;48.20;;;;;;10380527;28;20453;-51
2022/07/30 02:17:00;;;;;;;0.63;0.60;;;27.90;48.20;;;;;;10388240;28;20037;-52
2022/07/30 02:22:06;;;;;;;1.17;0.63;;;27.90;48.20;;;;;;10386409;28;20057;-50
2022/07/30 02:27:14;;;;;;;1.33;0.70;;;27.90;48.30;;;;;;10383431;28;20091;-53
2022/07/30 02:32:21;;;;;;;1.30;0.60;;;27.90;48.30;;;;;;10385296;28;20065;-51
2022/07/30 02:37:25;;;;;;;0.85;0.73;;;27.80;48.30;;;;;;10392713;28;20037;-51
2022/07/30 02:42:30;;;;;;;1.08;0.65;;;27.80;48.30;;;;;;10401696;28;20060;-50
2022/07/30 02:47:32;;;;;;;4.18;1.00;;;27.80;48.40;;;;;;10407556;28;20065;-53
2022/07/30 02:52:35;;;;;;;1.27;0.65;;;27.70;48.30;;;;;;10380571;28;20046;-50
2022/07/30 02:57:41;;;;;;;0.98;0.60;;;27.70;48.40;;;;;;10378005;28;20397;-52
2022/07/30 03:02:45;;;;;;;2.67;0.77;;;27.70;48.50;;;;;;10387520;28;20076;-45
2022/07/30 03:07:48;;;;;;;1.95;0.90;;;27.60;48.40;;;;;;10383508;28;20091;-53
2022/07/30 03:12:52;;;;;;;1.50;0.88;;;27.60;48.50;;;;;;10383866;28;20081;-52
2022/07/30 03:17:55;;;;;;;1.20;0.70;;;27.60;48.50;;;;;;10379474;28;20069;-49
2022/07/30 03:22:59;;;;;;;2.00;1.25;;;27.50;48.50;;;;;;10382986;28;20037;-53
2022/07/30 03:28:05;;;;;;;2.72;0.98;;;27.50;48.50;;;;;;10405712;28;20073;-46
2022/07/30 03:33:07;;;;;;;1.00;0.70;;;27.50;48.60;;;;;;10390311;28;20129;-52
2022/07/30 03:38:11;;;;;;;0.73;0.45;;;27.50;48.60;;;;;;10390867;28;20466;-51
2022/07/30 03:43:15;;;;;;;2.47;0.80;;;27.40;48.70;;;;;;10390839;28;20091;-53
2022/07/30 03:48:17;;;;;;;1.23;0.75;;;27.40;48.60;;;;;;10388849;28;20417;-54
2022/07/30 03:53:22;;;;;;;4.13;1.98;;;27.40;49.30;;;;;;10405329;28;20041;-54
2022/07/30 03:58:26;;;;;;;1.63;0.75;;;27.30;48.70;;;;;;10403788;28;20045;-52
2022/07/30 04:03:30;;;;;;;1.77;0.70;;;27.30;48.70;;;;;;10397069;28;20470;-54
2022/07/30 04:08:32;;;;;;;1.77;0.75;;;27.30;48.80;;;;;;10390501;28;20486;-51
2022/07/30 04:13:36;;;;;;;1.67;0.65;;;27.20;48.70;;;;;;10398226;28;20107;-54
2022/07/30 04:18:42;;;;;;;1.20;0.70;;;27.20;48.70;;;;;;10394979;28;20065;-55
2022/07/30 04:23:45;;;;;;;0.47;0.47;;;27.20;48.80;;;;;;10400644;28;20048;-52
2022/07/30 04:28:49;;;;;;;1.55;0.80;;;27.20;48.70;;;;;;10403707;28;20474;-52
2022/07/30 04:33:50;;;;;;;3.08;0.70;;;27.10;48.70;;;;;;10396602;28;20045;-53
2022/07/30 04:38:52;;;;;;;2.47;0.80;;;27.10;48.80;;;;;;10408008;28;20041;-52
2022/07/30 04:43:56;;;;;;;1.88;0.80;;;27.10;48.80;;;;;;10404630;28;20485;-53
2022/07/30 04:48:57;;;;;;;2.75;0.88;;;27.10;48.70;;;;;;10405860;28;20422;-52
2022/07/30 04:54:01;;;;;;;0.90;0.60;;;27.10;48.70;;;;;;10408584;28;20138;-52
2022/07/30 04:59:06;;;;;;;0.80;0.60;;;27.10;48.60;;;;;;10409498;28;20478;-52
2022/07/30 05:04:08;;;;;;;1.65;0.80;;;27.10;48.60;;;;;;10403887;28;20033;-51
2022/07/30 05:09:11;;;;;;;1.63;0.77;;;27.10;48.60;;;;;;10419220;28;20045;-52
2022/07/30 05:14:14;;;;;;;1.23;0.75;;;27.10;48.60;;;;;;10412169;28;20048;-52
2022/07/30 05:19:17;;;;;;;0.75;0.60;;;27.10;48.60;;;;;;10403616;28;20165;-54
2022/07/30 05:24:19;;;;;;;1.10;0.90;;;27.10;48.60;;;;;;10413339;28;20041;-53
2022/07/30 05:29:22;;;;;;;1.00;0.47;;;27.20;48.50;;;;;;10399383;28;20045;-54
2022/07/30 05:34:24;;;;;;;1.13;0.70;;;27.20;48.50;;;;;;10400043;28;20062;-46
2022/07/30 05:39:26;;;;;;;1.77;0.80;;;27.20;48.40;;;;;;10397937;28;20050;-47
2022/07/30 05:44:29;;;;;;;2.90;0.63;;;27.20;48.30;;;;;;10407345;28;20394;-54
2022/07/30 05:49:31;;;;;;;0.77;0.60;;;27.20;48.20;;;;;;10398375;28;20454;-53
2022/07/30 05:54:33;;;;;;;1.35;0.55;;;27.20;48.20;;;;;;10399066;28;20045;-48
2022/07/30 05:59:36;;;;;;;1.77;0.60;;;27.20;48.10;;;;;;10393817;28;20061;-50
2022/07/30 06:04:38;;;;;;;1.30;0.57;;;27.20;48.00;;;;;;10401115;28;20069;-52
2022/07/30 06:09:40;;;;;;;1.15;0.70;;;27.20;48.00;;;;;;10400831;28;20140;-48
2022/07/30 06:14:43;;;;;;;2.05;0.60;;;27.20;47.80;;;;;;10393887;28;20073;-52
2022/07/30 06:19:45;;;;;;;1.15;0.68;;;27.20;47.80;;;;;;10385462;28;20084;-53
2022/07/30 06:24:47;;;;;;;1.85;0.52;;;27.20;47.70;;;;;;10383919;28;20462;-49
2022/07/30 06:29:50;;;;;;;4.88;1.35;;;27.20;47.70;;;;;;10379641;28;20038;-52
2022/07/30 06:34:52;;;;;;;2.60;0.57;;;27.30;47.70;;;;;;10376382;28;20479;-52
2022/07/30 06:39:54;;;;;;;1.30;0.52;;;27.20;47.50;;;;;;10399318;28;20038;-53
2022/07/30 06:44:57;;;;;;;0.50;0.40;;;27.30;47.50;;;;;;10390386;28;20526;-50
2022/07/30 06:50:01;;;;;;;0.40;0.40;;;27.30;47.60;;;;;;10383393;28;20430;-55
2022/07/30 06:55:03;;;;;;;1.92;0.82;;;27.30;47.60;;;;;;10379188;28;20052;-52
2022/07/30 07:00:09;;;;;;;3.85;0.80;;;28.60;45.90;;;;;;10385306;28;20125;-58
2022/07/30 07:05:11;;;;;;;3.22;0.85;;;27.70;46.80;;;;;;10395941;28;20072;-51
2022/07/30 07:10:12;;;;;;;1.83;0.65;;;27.20;48.20;;;;;;10380593;28;20462;-52
2022/07/30 07:15:16;;;;;;;1.98;0.70;;;27.20;48.30;;;;;;10387720;28;20046;-51
2022/07/30 07:20:17;;;;;;;1.30;0.70;;;27.20;48.40;;;;;;10379982;28;20099;-53
2022/07/30 07:25:20;;;;;;;2.67;1.17;;;27.30;48.30;;;;;;10387501;28;20042;-50
2022/07/30 07:30:23;;;;;;;2.75;0.90;;;27.30;48.30;;;;;;10392336;28;20518;-52
2022/07/30 07:35:25;;;;;;;1.13;0.60;;;27.40;48.30;;;;;;10393438;28;20041;-52
2022/07/30 07:40:27;;;;;;;2.22;0.60;;;27.40;48.10;;;;;;10377586;28;20041;-49
2022/07/30 07:45:30;;;;;;;4.15;1.02;;;27.50;48.20;;;;;;10397630;28;20120;-53
2022/07/30 07:50:31;;;;;;;1.50;0.90;;;27.40;48.50;;;;;;10408299;28;20044;-51
2022/07/30 07:55:33;;;;;;;3.03;0.88;;;27.50;48.50;;;;;;10392413;28;20045;-54
2022/07/30 08:00:37;;;;;;;3.95;1.02;;;27.50;48.50;;;;;;10379566;28;20081;-54
2022/07/30 08:05:39;;;;;;;3.70;1.23;;;27.50;48.40;;;;;;10400918;28;20076;-48
2022/07/30 08:10:41;;;;;;;2.33;0.65;;;27.50;48.70;;;;;;10392669;28;20048;-49
2022/07/30 08:15:44;;;;;;;2.40;0.90;;;27.50;48.50;;;;;;10397331;28;20045;-53
2022/07/30 08:20:46;;;;;;;1.77;0.47;;;27.60;48.60;;;;;;10394778;28;20046;-48
2022/07/30 08:25:48;;;;;;;3.13;0.70;;;27.60;48.50;;;;;;10396788;28;20038;-53
2022/07/30 08:30:51;;;;;;;1.70;0.60;;;27.60;48.50;;;;;;10415122;28;20065;-51
2022/07/30 08:35:53;;;;;;;2.25;0.85;;;27.60;48.40;;;;;;10384395;28;20529;-49
2022/07/30 08:40:55;;;;;;;1.83;0.60;;;27.60;48.10;;;;;;10380222;28;20526;-53
2022/07/30 08:46:00;;;;;;;3.30;1.00;;;27.70;48.20;;;;;;10385504;28;20146;-49
2022/07/30 08:51:03;;;;;;;1.75;0.63;;;27.70;48.00;;;;;;10385519;28;20038;-51
2022/07/30 08:56:06;;;;;;;3.33;1.25;;;27.70;47.90;;;;;;10385304;28;20066;-48
2022/07/30 09:01:09;;;;;;;4.88;0.70;;;27.70;47.60;;;;;;10383924;28;20096;-50
2022/07/30 09:06:12;;;;;;;1.27;0.45;;;27.80;47.60;;;;;;10385975;28;20087;-53
2022/07/30 09:11:14;;;;;;;0.82;0.55;;;27.70;47.30;;;;;;10391594;28;20046;-51
2022/07/30 09:16:21;;;;;;;4.70;0.75;;;27.70;47.20;;;;;;10385550;28;20090;-50
2022/07/30 09:21:25;;;;;;;1.48;0.63;;;27.80;47.10;;;;;;10387827;28;20121;-49
2022/07/30 09:26:28;;;;;;;2.17;0.77;;;27.80;47.10;;;;;;10384807;28;20128;-51
2022/07/30 09:31:32;;;;;;;1.27;0.70;;;27.90;47.10;;;;;;10382693;28;20738;-52
2022/07/30 09:36:34;;;;;;;2.20;0.70;;;27.90;47.20;;;;;;10377723;28;20041;-52
2022/07/30 09:41:37;;;;;;;1.15;0.63;;;27.90;47.20;;;;;;10382182;28;20546;-50
2022/07/30 09:46:46;;;;;;;1.08;0.43;;;28.00;47.10;;;;;;10383613;28;20139;-53
2022/07/30 09:51:48;;;;;;;6.95;1.10;;;28.00;47.00;;;;;;10404037;28;20046;-52
2022/07/30 09:57:04;;;;;;;2.47;0.88;;;28.00;47.00;;;;;;10397776;28;20379;-46
2022/07/30 10:02:09;;;;;;;2.22;0.73;;;28.00;47.00;;;;;;10401259;28;20462;-48
2022/07/30 10:07:18;;;;;;;4.43;1.02;;;28.00;47.20;;;;;;10399462;28;20521;-53
2022/07/30 10:12:21;;;;;;;1.98;0.90;;;28.00;47.10;;;;;;10397156;28;20063;-48
2022/07/30 10:17:24;;;;;;;2.35;0.68;;;28.00;47.20;;;;;;10377122;28;20085;-45
2022/07/30 10:22:27;;;;;;;4.32;0.88;;;28.00;47.70;;;;;;10380427;28;20045;-49
2022/07/30 10:27:29;;;;;;;2.33;0.70;;;28.00;47.20;;;;;;10383949;28;20038;-52
2022/07/30 10:32:32;;;;;;;2.33;1.20;;;28.00;48.10;;;;;;10399860;28;20111;-48
2022/07/30 10:37:35;;;;;;;1.98;0.80;;;28.20;47.50;;;;;;10383911;28;20050;-49
2022/07/30 10:43:02;;;;;;;1.98;0.70;;;28.10;47.30;;;;;;10386353;28;20073;-50
2022/07/30 10:48:06;;;;;;;3.05;1.00;;;28.10;47.50;;;;;;10387513;28;20041;-48
2022/07/30 10:53:08;;;;;;;1.85;0.55;;;28.10;47.30;;;;;;10391148;28;20144;-48
2022/07/30 10:58:11;;;;;;;1.75;0.77;;;28.10;47.30;;;;;;10389911;28;20132;-55
2022/07/30 11:03:18;;;;;;;6.38;0.90;;;28.10;47.30;;;;;;10385472;28;20049;-49
2022/07/30 11:08:35;;;;;;;6.68;0.93;;;28.20;47.40;;;;;;10381794;28;20042;-41
2022/07/30 11:13:53;;;;;;;7.28;1.35;;;28.20;47.40;;;;;;10371069;28;20136;-49
2022/07/30 11:19:15;;;;;;;1.92;0.82;;;28.20;47.40;;;;;;10389740;28;20124;-52
2022/07/30 11:24:42;;;;;;;2.15;0.60;;;28.20;47.30;;;;;;10376912;28;20429;-52
2022/07/30 11:29:44;;;;;;;3.17;0.90;;;28.20;47.30;;;;;;10389181;28;20041;-49
2022/07/30 11:34:47;;;;;;;1.35;0.80;;;28.30;47.00;;;;;;10393454;28;20053;-45
2022/07/30 11:40:12;;;;;;;1.25;0.75;;;28.30;47.10;;;;;;10385560;28;20464;-49
2022/07/30 11:45:25;;;;;;;3.00;0.93;;;28.40;47.30;;;;;;10392753;28;20045;-48
2022/07/30 11:50:30;;;;;;;2.50;1.25;;;28.50;47.10;;;;;;10395482;28;20037;-51
2022/07/30 11:55:35;;;;;;;1.10;0.60;;;28.50;47.10;;;;;;10393427;28;20141;-50
2022/07/30 12:00:39;;;;;;;1.55;0.88;;;28.70;47.10;;;;;;10390195;28;20050;-49
2022/07/30 12:05:43;;;;;;;4.30;1.00;;;28.80;47.20;;;;;;10386285;28;20103;-51
2022/07/30 12:10:56;;;;;;;3.17;0.65;;;28.90;47.00;;;;;;10406328;28;20095;-49
2022/07/30 12:15:58;;;;;;;3.42;1.08;;;28.90;46.80;;;;;;10387589;28;20123;-49
2022/07/30 12:21:03;;;;;;;7.03;1.10;;;29.10;46.70;;;;;;10387359;28;20057;-50
2022/07/30 12:26:05;;;;;;;1.77;0.70;;;29.10;46.80;;;;;;10398651;28;20076;-51
2022/07/30 12:31:07;;;;;;;0.50;0.50;;;29.20;47.50;;;;;;10395133;28;20141;-47
2022/07/30 12:36:24;;;;;;;1.45;0.73;;;29.20;46.70;;;;;;10387837;28;20144;-49
2022/07/30 12:41:41;;;;;;;1.98;0.90;;;29.30;47.10;;;;;;10395704;28;20041;-53
2022/07/30 12:46:43;;;;;;;1.88;0.88;;;29.40;46.80;;;;;;10398744;28;20196;-49
2022/07/30 12:51:53;;;;;;;4.20;0.90;;;29.40;46.80;;;;;;10385803;28;20080;-51
2022/07/30 12:57:00;;;;;;;5.03;0.90;;;29.40;46.80;;;;;;10393488;28;20074;-49
2022/07/30 13:02:02;;;;;;;3.97;0.93;;;29.40;46.80;;;;;;10381856;28;20060;-48
2022/07/30 13:07:07;;;;;;;4.70;0.77;;;29.50;46.60;;;;;;10389397;28;20463;-52
2022/07/30 13:12:12;;;;;;;0.57;0.43;;;29.50;46.50;;;;;;10386939;28;20037;-49
2022/07/30 13:17:14;;;;;;;3.67;0.80;;;29.50;46.90;;;;;;10381449;28;20100;-48
2022/07/30 13:22:17;;;;;;;1.75;0.68;;;29.60;46.80;;;;;;10374976;28;20050;-50
2022/07/30 13:27:19;;;;;;;2.55;1.00;;;29.60;46.60;;;;;;10391265;28;20041;-47
2022/07/30 13:32:21;;;;;;;6.28;1.05;;;29.60;46.60;;;;;;10396776;28;20068;-49
2022/07/30 13:37:24;;;;;;;5.60;1.00;;;29.60;46.60;;;;;;10385279;28;20047;-48
2022/07/30 13:42:26;;;;;;;2.35;0.80;;;29.50;46.50;;;;;;10390428;28;20582;-48
2022/07/30 13:47:28;;;;;;;2.08;0.60;;;29.60;47.00;;;;;;10375351;28;20069;-50
2022/07/30 13:52:31;;;;;;;2.42;0.90;;;29.70;47.00;;;;;;10383025;28;20045;-46
2022/07/30 13:57:33;;;;;;;4.65;0.90;;;29.80;46.90;;;;;;10370603;28;20132;-47
2022/07/30 14:02:35;;;;;;;2.05;1.05;;;29.80;46.50;;;;;;10388348;28;20741;-52
2022/07/30 14:07:40;;;;;;;2.92;0.98;;;29.80;46.60;;;;;;10387727;28;21878;-52
2022/07/30 14:12:42;;;;;;;4.28;1.00;;;29.80;46.40;;;;;;10388595;28;20088;-49
2022/07/30 14:17:44;;;;;;;1.85;1.17;;;29.90;46.90;;;;;;10395928;28;20143;-44
2022/07/30 14:22:47;;;;;;;1.98;0.80;;;29.90;47.00;;;;;;10395104;28;20119;-48
2022/07/30 14:27:49;;;;;;;7.35;1.38;;;29.90;47.00;;;;;;10387785;28;20050;-45
2022/07/30 14:32:51;;;;;;;1.10;0.60;;;29.90;47.20;;;;;;10403594;28;20088;-46
2022/07/30 14:37:54;;;;;;;6.38;1.50;;;29.80;47.00;;;;;;10394476;28;20041;-49
2022/07/30 14:42:56;;;;;;;1.88;0.80;;;29.90;47.10;;;;;;10398110;28;20085;-46
2022/07/30 14:47:58;;;;;;;1.00;0.70;;;29.90;47.10;;;;;;10383234;28;20132;-51
2022/07/30 14:53:01;;;;;;;0.75;0.57;;;29.90;47.10;;;;;;10376571;28;20038;-46
2022/07/30 14:58:03;;;;;;;3.03;0.90;;;29.90;47.20;;;;;;10388254;28;20038;-48
2022/07/30 15:03:05;;;;;;;1.90;0.55;;;30.00;47.40;;;;;;10387148;28;20073;-47
2022/07/30 15:08:08;;;;;;;2.47;0.70;;;30.00;47.40;;;;;;10374030;28;20061;-45
2022/07/30 15:13:10;;;;;;;1.80;0.63;;;30.00;47.30;;;;;;10376620;28;20140;-51
2022/07/30 15:18:12;;;;;;;2.67;1.00;;;30.00;47.10;;;;;;10381697;28;20034;-49
2022/07/30 15:23:15;;;;;;;2.08;0.82;;;30.00;47.10;;;;;;10404715;28;20046;-48
2022/07/30 15:28:18;;;;;;;1.45;0.95;;;30.10;47.20;;;;;;10388980;28;20045;-48
2022/07/30 15:33:20;;;;;;;4.30;1.77;;;30.00;47.10;;;;;;10390212;28;20412;-49
2022/07/30 15:38:23;;;;;;;1.10;0.82;;;30.10;47.30;;;;;;10402017;28;20136;-51
2022/07/30 15:43:25;;;;;;;12.10;2.00;;;30.20;46.90;;;;;;10389424;28;20046;-49
2022/07/30 15:48:27;;;;;;;2.47;1.00;;;30.20;47.20;;;;;;10381276;28;20196;-48
2022/07/30 15:53:31;;;;;;;1.48;0.70;;;30.20;47.50;;;;;;10389982;28;20058;-45
2022/07/30 15:58:34;;;;;;;1.85;0.90;;;30.20;47.40;;;;;;10388265;28;20224;-44
2022/07/30 16:03:35;;;;;;;1.23;0.65;;;30.20;47.30;;;;;;10385537;28;20042;-45
2022/07/30 16:08:39;;;;;;;1.23;0.65;;;30.20;47.00;;;;;;10390106;28;20519;-50
2022/07/30 16:13:41;;;;;;;2.20;0.80;;;30.20;47.10;;;;;;10385484;28;20049;-52
2022/07/30 16:18:42;;;;;;;1.38;0.70;;;30.20;47.00;;;;;;10391666;28;20045;-48
2022/07/30 16:23:46;;;;;;;1.50;0.73;;;30.10;47.00;;;;;;10393170;28;20179;-46
2022/07/30 16:28:47;;;;;;;1.88;0.70;;;30.10;46.80;;;;;;10403661;28;20045;-49
2022/07/30 16:33:49;;;;;;;1.70;0.82;;;30.20;47.10;;;;;;10401653;28;20115;-45
2022/07/30 16:38:53;;;;;;;2.40;1.00;;;30.20;47.00;;;;;;10393215;28;20099;-45
2022/07/30 16:43:54;;;;;;;1.55;0.90;;;30.10;47.20;;;;;;10399738;28;20047;-49
2022/07/30 16:48:56;;;;;;;2.53;0.90;;;30.10;47.00;;;;;;10398959;28;20034;-49
2022/07/30 16:53:59;;;;;;;1.85;0.95;;;30.10;47.00;;;;;;10405387;28;20429;-52
2022/07/30 16:59:01;;;;;;;3.42;0.95;;;30.10;47.40;;;;;;10403423;28;20049;-52
2022/07/30 17:04:03;;;;;;;3.42;0.98;;;30.20;47.30;;;;;;10400175;28;20077;-46
2022/07/30 17:09:07;;;;;;;2.17;0.82;;;30.20;47.10;;;;;;10402314;28;20132;-50
2022/07/30 17:14:09;;;;;;;3.90;0.80;;;30.30;47.50;;;;;;10397524;28;20076;-44
2022/07/30 17:19:11;;;;;;;2.08;0.70;;;30.40;47.80;;;;;;10393665;28;20042;-49
2022/07/30 17:24:14;;;;;;;2.40;1.00;;;30.40;47.60;;;;;;10386073;28;20061;-50
2022/07/30 17:29:16;;;;;;;1.92;0.80;;;30.40;47.40;;;;;;10407600;28;20069;-50
2022/07/30 17:34:19;;;;;;;1.00;0.82;;;30.40;47.50;;;;;;10398112;28;20065;-47
2022/07/30 17:39:22;;;;;;;2.50;0.70;;;30.40;47.80;;;;;;10383137;28;20140;-52
2022/07/30 17:44:24;;;;;;;3.17;0.80;;;30.50;47.70;;;;;;10397902;28;20065;-50
2022/07/30 17:49:27;;;;;;;3.22;0.80;;;30.40;48.00;;;;;;10390266;28;20156;-49
2022/07/30 17:54:30;;;;;;;2.08;1.23;;;30.50;47.90;;;;;;10391144;28;21216;-49
2022/07/30 17:59:32;;;;;;;1.80;1.10;;;30.50;48.00;;;;;;10398808;28;20045;-48
2022/07/30 18:04:34;;;;;;;2.83;1.38;;;30.50;47.80;;;;;;10385296;28;20571;-45
2022/07/30 18:09:39;;;;;;;2.10;1.15;;;30.40;47.60;;;;;;10386713;28;20375;-46
2022/07/30 18:14:41;;;;;;;2.15;1.23;;;30.30;47.60;;;;;;10394694;28;20045;-50
2022/07/30 18:19:44;;;;;;;5.57;1.80;;;30.40;47.90;;;;;;10401400;28;20043;-51
2022/07/30 18:24:47;;;;;;;1.83;0.95;;;30.40;47.90;;;;;;10399497;28;20058;-48
2022/07/30 18:29:49;;;;;;;3.33;1.45;;;30.30;47.90;;;;;;10393378;28;20061;-47
2022/07/30 18:34:52;;;;;;;3.33;1.05;;;30.30;47.60;;;;;;10391088;28;20045;-51
2022/07/30 18:39:55;;;;;;;5.90;1.40;;;30.30;47.70;;;;;;10398032;28;20386;-47
2022/07/30 18:44:57;;;;;;;3.03;1.10;;;30.30;47.40;;;;;;10388997;28;21588;-50
2022/07/30 18:49:59;;;;;;;8.40;1.65;;;30.30;47.30;;;;;;10395400;28;20695;-50
2022/07/30 18:55:02;;;;;;;2.58;0.90;;;30.20;47.30;;;;;;10395881;28;20099;-46
2022/07/30 19:00:07;;;;;;;4.32;1.30;;;30.20;47.20;;;;;;10395935;28;20814;-46
2022/07/30 19:05:10;;;;;;;6.68;1.95;;;30.20;47.30;;;;;;10395188;28;20044;-48
2022/07/30 19:10:13;;;;;;;4.93;1.50;;;30.20;47.10;;;;;;10393902;28;20108;-51
2022/07/30 19:15:15;;;;;;;4.50;1.60;;;30.10;47.10;;;;;;10385774;28;20140;-45
2022/07/30 19:20:18;;;;;;;10.63;2.00;;;30.10;46.80;;;;;;10394376;28;20080;-47
2022/07/30 19:25:21;;;;;;;5.35;1.98;;;30.00;46.60;;;;;;10396150;28;20038;-46
2022/07/30 19:30:23;;;;;;;3.85;1.67;;;30.00;46.50;;;;;;10391222;28;20045;-47
2022/07/30 19:35:25;;;;;;;5.35;1.30;;;30.00;46.70;;;;;;10396753;28;20866;-50
2022/07/30 19:40:29;;;;;;;7.63;1.98;;;30.00;46.50;;;;;;10395242;28;20087;-48
2022/07/30 19:45:34;;;;;;;9.45;1.55;;;29.90;46.30;;;;;;10396473;28;20076;-49
2022/07/30 19:50:36;;;;;;;3.53;1.42;;;29.90;46.30;;;;;;10396118;28;20045;-49
2022/07/30 19:55:40;;;;;;;5.63;1.25;;;29.90;46.30;;;;;;10395834;28;20425;-49
2022/07/30 20:00:42;;;;;;;5.13;1.27;;;29.80;46.20;;;;;;10394750;28;20417;-51
2022/07/30 20:05:43;;;;;;;3.08;1.35;;;29.90;46.10;;;;;;10400297;28;20124;-53
2022/07/30 20:10:47;;;;;;;2.58;1.23;;;29.80;46.00;;;;;;10405978;28;20073;-54
2022/07/30 20:15:51;;;;;;;4.72;1.10;;;29.90;46.00;;;;;;10403362;28;20042;-46
2022/07/30 20:20:53;;;;;;;3.80;1.10;;;29.80;46.00;;;;;;10402692;28;20629;-50
2022/07/30 20:25:56;;;;;;;1.35;0.95;;;29.80;46.00;;;;;;10402469;28;20088;-45
2022/07/30 20:30:58;;;;;;;3.83;1.10;;;29.80;46.10;;;;;;10402802;28;20744;-51
2022/07/30 20:35:59;;;;;;;3.45;1.45;;;29.70;46.20;;;;;;10402271;28;20168;-50
2022/07/30 20:41:03;;;;;;;2.30;1.00;;;29.70;46.20;;;;;;10397782;28;20471;-51
2022/07/30 20:46:05;;;;;;;4.00;1.15;;;29.70;46.30;;;;;;10395854;28;20433;-48
2022/07/30 20:51:08;;;;;;;1.85;0.88;;;29.70;46.40;;;;;;10404460;28;20046;-51
2022/07/30 20:56:11;;;;;;;3.40;1.38;;;29.70;46.50;;;;;;10401483;28;20054;-47
2022/07/30 21:01:13;;;;;;;1.40;0.90;;;29.60;46.50;;;;;;10403204;28;20457;-52
2022/07/30 21:06:15;;;;;;;1.48;0.82;;;29.60;46.50;;;;;;10403648;28;21025;-51
2022/07/30 21:11:19;;;;;;;1.60;0.82;;;29.60;46.50;;;;;;10404371;28;20127;-49
2022/07/30 21:16:22;;;;;;;2.00;0.90;;;29.50;46.50;;;;;;10405021;28;20045;-47
2022/07/30 21:21:24;;;;;;;3.22;1.08;;;29.50;46.50;;;;;;10404670;28;20041;-45
2022/07/30 21:26:28;;;;;;;1.13;0.75;;;29.50;46.60;;;;;;10401597;28;20136;-52
2022/07/30 21:31:30;;;;;;;2.85;1.00;;;29.50;47.10;;;;;;10401769;28;20119;-48
2022/07/30 21:36:32;;;;;;;1.20;0.82;;;29.50;46.50;;;;;;10403985;28;20049;-49
2022/07/30 21:41:35;;;;;;;1.33;0.77;;;29.50;46.50;;;;;;10404044;28;20072;-50
2022/07/30 21:46:39;;;;;;;2.08;0.70;;;29.40;46.40;;;;;;10379636;28;20497;-49
2022/07/30 21:51:41;;;;;;;1.67;0.60;;;29.40;46.40;;;;;;10393983;28;20046;-50
2022/07/30 21:56:44;;;;;;;4.70;1.08;;;29.30;46.40;;;;;;10400951;28;20639;-50
2022/07/30 22:01:46;;;;;;;1.38;0.90;;;29.30;46.40;;;;;;10397673;28;20124;-49
2022/07/30 22:06:47;;;;;;;1.88;0.90;;;29.20;46.50;;;;;;10398028;28;20283;-50
2022/07/30 22:11:51;;;;;;;2.63;0.98;;;29.20;46.50;;;;;;10389371;28;20040;-49
2022/07/30 22:16:53;;;;;;;1.48;1.08;;;29.20;46.60;;;;;;10391565;28;20127;-51
2022/07/30 22:21:55;;;;;;;1.58;0.80;;;29.20;46.60;;;;;;10394556;28;20144;-49
2022/07/30 22:26:58;;;;;;;2.10;0.82;;;29.10;46.60;;;;;;10390768;28;20042;-51
2022/07/30 22:32:00;;;;;;;2.10;0.77;;;29.20;46.80;;;;;;10389760;28;20660;-49
2022/07/30 22:37:02;;;;;;;1.58;0.93;;;29.10;46.90;;;;;;10389633;28;20446;-54
2022/07/30 22:42:05;;;;;;;1.30;0.85;;;29.00;46.90;;;;;;10393772;28;20071;-52
2022/07/30 22:47:07;;;;;;;2.13;0.73;;;29.00;47.10;;;;;;10394654;28;20128;-50
2022/07/30 22:52:09;;;;;;;3.30;1.15;;;29.00;47.20;;;;;;10393995;28;20033;-46
2022/07/30 22:57:12;;;;;;;3.80;1.00;;;29.00;47.30;;;;;;10394184;28;20429;-48
2022/07/30 23:02:14;;;;;;;5.57;1.50;;;29.00;47.50;;;;;;10391268;28;20048;-48
2022/07/30 23:07:16;;;;;;;3.80;1.52;;;29.00;47.70;;;;;;10394285;28;20553;-51
2022/07/30 23:12:20;;;;;;;2.25;0.93;;;28.90;47.80;;;;;;10391469;28;20135;-53
2022/07/30 23:17:21;;;;;;;4.43;0.95;;;28.90;47.80;;;;;;10394454;28;20123;-50
2022/07/30 23:22:24;;;;;;;3.50;1.00;;;28.90;48.00;;;;;;10393893;28;20133;-45
2022/07/30 23:27:27;;;;;;;3.13;1.30;;;28.80;48.00;;;;;;10390555;28;20057;-50
2022/07/30 23:32:29;;;;;;;2.72;1.10;;;28.90;48.20;;;;;;10392150;28;20081;-47
2022/07/30 23:37:32;;;;;;;3.63;1.17;;;28.80;48.20;;;;;;10392597;28;20061;-52
2022/07/30 23:42:36;;;;;;;2.15;0.90;;;28.80;48.40;;;;;;10393894;28;20049;-52
2022/07/30 23:47:38;;;;;;;2.10;0.98;;;28.80;48.50;;;;;;10393947;28;20095;-49
2022/07/30 23:52:41;;;;;;;3.78;0.90;;;28.70;48.50;;;;;;10389932;28;20151;-50
2022/07/30 23:57:44;;;;;;;1.73;1.05;;;28.70;48.60;;;;;;10393178;28;20057;-50
